Strona główna
METAR-TAF:

METAR-TAF

Lotnisko :

Port lotniczy Padang

Padang, Indonezja

Szerokość geograficzna: 00-47-12S, Długość geograficzna: 100-16-50E, wysokość: 5 m

METAR: brakujący

czas: 15:13 (08:13 UTC)

Prognoza

Raport powstał 3 godziny i 13 minut temu, godzina 05:00 UTC
Prognoza ważna od 05 godzina 06 UTC do 06 godzina 06 UTC
Wiatr 6 kt od zachodnio-północny zachód
Mało chmury na wysokości 2000 ft
Stopniowe zmiany
od 05 godzina 11 UTC do 05 godzina 13 UTC
Wiatr 2 kt od północ
Rozproszone chmury na wysokości 2000 ft

TAF: WIEE 050500Z 0506/0606 29006KT FEW020 BECMG 0511/0513 36002KT SCT020

Obserwacja i prognoza pogody dla ponad 4000 lotnisk (raport METAR i TAF).

Dostępne stacje oznaczono żółtymi i czerwonymi punktami na mapie.

Najedź kursorem aby zobaczyć nazwę stacji.

Kliknij aby zobaczyć obserwacje i prognozy pogody.

Aby zmienić mapę: kliknij na zielony przycisk z czarnym krzyżykiem, aby powiększyć; na zielony przycisk z myślnikiem, aby pomniejszyć; na zielone strzałki, aby przejść do map sąsiednich.


METAR-TAF: